createdAt,value
2018-02-20T00:01:03.390Z,19.32
2018-02-20T00:02:12.599Z,19.28
2018-02-20T00:03:21.807Z,19.19
2018-02-20T00:04:31.283Z,19.22
2018-02-20T00:05:40.501Z,19.23
2018-02-20T00:06:49.980Z,19.21
2018-02-20T00:07:58.923Z,19.28
2018-02-20T00:09:08.138Z,19.25
2018-02-20T00:10:17.617Z,19.14
2018-02-20T00:11:26.296Z,19.26
2018-02-20T00:12:35.243Z,19.25
2018-02-20T00:13:44.456Z,19.22
2018-02-20T00:14:53.934Z,19.21
2018-02-20T00:16:02.874Z,19.25
2018-02-20T00:17:11.560Z,19.26
2018-02-20T00:18:20.503Z,19.23
2018-02-20T00:19:29.446Z,19.25
2018-02-20T00:20:38.123Z,19.18
2018-02-20T00:21:47.067Z,19.16
2018-02-20T00:22:56.276Z,19.23
2018-02-20T00:24:05.489Z,19.21
2018-02-20T00:25:14.446Z,19.28
2018-02-20T00:26:23.980Z,19.21
2018-02-20T00:27:33.193Z,19.21
2018-02-20T00:28:42.405Z,19.19
2018-02-20T00:29:51.353Z,19.21
2018-02-20T00:31:00.033Z,19.25
2018-02-20T00:32:09.510Z,19.14
2018-02-20T00:33:18.724Z,19.22
2018-02-20T00:34:28.475Z,19.26
2018-02-20T00:35:37.954Z,19.19
2018-02-20T00:36:47.173Z,19.21
2018-02-20T00:37:56.647Z,19.19
2018-02-20T00:39:05.592Z,19.28
2018-02-20T00:40:14.267Z,19.22
2018-02-20T00:41:23.212Z,19.19
2018-02-20T00:42:32.696Z,19.22
2018-02-20T00:43:42.216Z,19.14
2018-02-20T00:44:51.156Z,19.21
2018-02-20T00:46:00.646Z,19.25
2018-02-20T00:47:10.124Z,19.25
2018-02-20T00:48:19.333Z,19.23
2018-02-20T00:49:28.279Z,19.25
2018-02-20T00:50:37.225Z,19.21
2018-02-20T00:51:46.436Z,19.28
2018-02-20T00:52:55.924Z,19.22
2018-02-20T00:54:05.402Z,19.19
2018-02-20T00:55:14.344Z,19.22
2018-02-20T00:56:24.095Z,19.23
2018-02-20T00:57:33.045Z,19.19
2018-02-20T00:58:42.537Z,19.19
2018-02-20T00:59:51.754Z,19.21
2018-02-20T01:01:01.245Z,19.22
2018-02-20T01:02:10.189Z,19.13
2018-02-20T01:03:19.132Z,19.14
2018-02-20T01:04:28.079Z,19.18
2018-02-20T01:05:37.290Z,19.18
2018-02-20T01:06:46.501Z,19.23
2018-02-20T01:07:55.707Z,19.11
2018-02-20T01:09:04.653Z,19.11
2018-02-20T01:10:13.604Z,19.16
2018-02-20T01:11:22.562Z,19.19
2018-02-20T01:12:31.770Z,19.19
2018-02-20T01:13:41.246Z,19.1
2018-02-20T01:14:50.728Z,19.1
2018-02-20T01:15:59.406Z,19.18
2018-02-20T01:17:08.884Z,19.11
2018-02-20T01:18:18.638Z,19.23
2018-02-20T01:19:27.318Z,19.1
2018-02-20T01:20:36.262Z,19.22
2018-02-20T01:21:45.212Z,19.16
2018-02-20T01:22:54.426Z,19.18
2018-02-20T01:24:03.902Z,19.18
2018-02-20T01:25:13.112Z,19.18
2018-02-20T01:26:22.057Z,19.19
2018-02-20T01:27:30.758Z,19.11
2018-02-20T01:28:39.411Z,19.16
2018-02-20T01:29:48.613Z,19.16
2018-02-20T01:30:57.823Z,19.22
2018-02-20T01:32:06.504Z,19.18
2018-02-20T01:33:15.716Z,19.18
2018-02-20T01:34:25.190Z,19.1
2018-02-20T01:35:34.669Z,19.14
2018-02-20T01:36:43.881Z,19.21
2018-02-20T01:37:53.087Z,19.11
2018-02-20T01:39:02.298Z,19.14
2018-02-20T01:40:11.556Z,19.11
2018-02-20T01:41:20.770Z,19.13
2018-02-20T01:42:29.706Z,19.13
2018-02-20T01:43:38.917Z,19.13
2018-02-20T01:44:47.858Z,19.13
2018-02-20T01:45:56.540Z,19.13
2018-02-20T01:47:05.751Z,19.1
2018-02-20T01:48:14.959Z,19.18
2018-02-20T01:49:23.905Z,19.14
2018-02-20T01:50:32.583Z,19.07
2018-02-20T01:51:42.059Z,19.16
2018-02-20T01:52:51.274Z,19.11
2018-02-20T01:54:00.753Z,19.13
2018-02-20T01:55:09.973Z,19.14
2018-02-20T01:56:19.185Z,19.18
2018-02-20T01:57:28.395Z,19.08
2018-02-20T01:58:37.338Z,19.13
2018-02-20T01:59:46.816Z,19.11
2018-02-20T02:00:56.024Z,19.21
2018-02-20T02:02:05.771Z,19.16
2018-02-20T02:03:14.450Z,19.14
2018-02-20T02:04:23.392Z,19.1
2018-02-20T02:05:32.606Z,19.11
2018-02-20T02:06:41.814Z,19.16
2018-02-20T02:07:51.029Z,19.08
2018-02-20T02:08:59.975Z,19.14
2018-02-20T02:10:08.921Z,19.11
2018-02-20T02:11:18.135Z,19.07
2018-02-20T02:12:27.080Z,19.07
2018-02-20T02:13:36.291Z,19.14
2018-02-20T02:14:45.772Z,19.1
2018-02-20T02:15:54.715Z,19.08
2018-02-20T02:17:03.663Z,19.04
2018-02-20T02:18:12.336Z,19.13
2018-02-20T02:19:21.820Z,19.16
2018-02-20T02:20:30.762Z,19.06
2018-02-20T02:21:39.706Z,19.18
2018-02-20T02:22:48.921Z,19.06
2018-02-20T02:23:58.394Z,19.08
2018-02-20T02:25:07.603Z,19.11
2018-02-20T02:26:16.814Z,19.08
2018-02-20T02:27:25.765Z,19.1
2018-02-20T02:28:34.703Z,19.19
2018-02-20T02:29:43.914Z,19.13
2018-02-20T02:30:53.136Z,19
2018-02-20T02:32:02.627Z,19.04
2018-02-20T02:33:12.130Z,19.02
2018-02-20T02:34:20.813Z,19.06
2018-02-20T02:35:30.021Z,19.11
2018-02-20T02:36:39.506Z,19.06
2018-02-20T02:37:49.248Z,19.13
2018-02-20T02:38:58.494Z,19.02
2018-02-20T02:40:07.710Z,19.02
2018-02-20T02:41:16.922Z,19.04
2018-02-20T02:42:25.867Z,19.06
2018-02-20T02:43:34.825Z,19.04
2018-02-20T02:44:43.771Z,19.1
2018-02-20T02:45:52.720Z,19.06
2018-02-20T02:47:02.200Z,19.08
2018-02-20T02:48:11.684Z,19.08
2018-02-20T02:49:21.438Z,19.1
2018-02-20T02:50:30.660Z,19.02
2018-02-20T02:51:39.608Z,19.06
2018-02-20T02:52:48.818Z,19
2018-02-20T02:53:58.035Z,19.08
2018-02-20T02:55:07.788Z,19.11
2018-02-20T02:56:17.275Z,19.04
2018-02-20T02:57:26.494Z,19.14
2018-02-20T02:58:35.709Z,18.99
2018-02-20T02:59:44.941Z,19.06
2018-02-20T03:00:54.178Z,19.07
2018-02-20T03:02:03.092Z,19.02
2018-02-20T03:03:12.039Z,18.99
2018-02-20T03:04:21.537Z,19.1
2018-02-20T03:05:30.746Z,19
2018-02-20T03:06:40.236Z,19.04
2018-02-20T03:07:49.446Z,19.07
2018-02-20T03:08:58.659Z,19.08
2018-02-20T03:10:08.146Z,19.06
2018-02-20T03:11:17.621Z,19.04
2018-02-20T03:12:26.299Z,19.02
2018-02-20T03:13:34.980Z,18.99
2018-02-20T03:14:43.917Z,18.99
2018-02-20T03:15:53.131Z,18.98
2018-02-20T03:17:02.080Z,19.02
2018-02-20T03:18:11.024Z,19.02
2018-02-20T03:19:19.966Z,19.06
2018-02-20T03:20:28.910Z,19
2018-02-20T03:21:37.858Z,19.02
2018-02-20T03:22:47.612Z,18.99
2018-02-20T03:23:56.822Z,19.06
2018-02-20T03:25:06.570Z,18.99
2018-02-20T03:26:15.250Z,18.99
2018-02-20T03:27:24.731Z,19.06
2018-02-20T03:28:33.408Z,19.04
2018-02-20T03:29:42.622Z,19
2018-02-20T03:30:51.568Z,19
2018-02-20T03:32:00.791Z,18.91
2018-02-20T03:33:10.278Z,19
2018-02-20T03:34:19.490Z,18.94
2018-02-20T03:35:28.433Z,18.92
2018-02-20T03:36:37.648Z,19.06
2018-02-20T03:37:47.125Z,18.99
2018-02-20T03:38:55.798Z,18.95
2018-02-20T03:40:04.747Z,18.99
2018-02-20T03:41:13.963Z,19
2018-02-20T03:42:23.182Z,19.04
2018-02-20T03:43:31.860Z,19.02
2018-02-20T03:44:40.537Z,19.02
2018-02-20T03:45:49.481Z,19.06
2018-02-20T03:46:58.697Z,18.94
2018-02-20T03:48:08.190Z,18.95
2018-02-20T03:49:16.869Z,19
2018-02-20T03:50:25.814Z,18.94
2018-02-20T03:51:34.766Z,18.99
2018-02-20T03:52:43.990Z,18.92
2018-02-20T03:53:54.016Z,18.94
2018-02-20T03:55:03.513Z,18.98
2018-02-20T03:56:12.730Z,19
2018-02-20T03:57:21.951Z,19
2018-02-20T03:58:31.437Z,18.9
2018-02-20T03:59:40.119Z,18.94
2018-02-20T04:00:49.077Z,19
2018-02-20T04:01:58.301Z,18.92
2018-02-20T04:03:07.259Z,19.02
2018-02-20T04:04:16.209Z,18.9
2018-02-20T04:05:25.432Z,19.02
2018-02-20T04:06:34.121Z,18.99
2018-02-20T04:07:43.070Z,18.98
2018-02-20T04:08:52.024Z,18.99
2018-02-20T04:10:00.979Z,18.99
2018-02-20T04:11:10.247Z,19.02
2018-02-20T04:12:19.199Z,18.94
2018-02-20T04:13:28.417Z,18.95
2018-02-20T04:14:37.370Z,19.02
2018-02-20T04:15:46.594Z,18.94
2018-02-20T04:16:55.811Z,19.02
2018-02-20T04:18:04.763Z,19.02
2018-02-20T04:19:14.252Z,18.91
2018-02-20T04:20:23.210Z,18.99
2018-02-20T04:21:32.175Z,19.02
2018-02-20T04:22:41.662Z,18.98
2018-02-20T04:23:50.883Z,19.04
2018-02-20T04:25:00.108Z,18.99
2018-02-20T04:26:09.333Z,19
2018-02-20T04:27:18.285Z,18.99
2018-02-20T04:28:27.235Z,19.02
2018-02-20T04:29:36.457Z,18.98
2018-02-20T04:30:45.412Z,18.9
2018-02-20T04:31:54.643Z,19.04
2018-02-20T04:33:03.883Z,18.94
2018-02-20T04:34:12.856Z,18.95
2018-02-20T04:35:22.097Z,18.91
2018-02-20T04:36:30.793Z,19
2018-02-20T04:37:39.756Z,18.99
2018-02-20T04:38:48.456Z,18.95
2018-02-20T04:39:57.971Z,18.99
2018-02-20T04:41:06.667Z,18.94
2018-02-20T04:42:16.173Z,18.95
2018-02-20T04:43:25.691Z,18.91
2018-02-20T04:44:34.927Z,18.88
2018-02-20T04:45:44.211Z,18.9
2018-02-20T04:46:53.398Z,18.92
2018-02-20T04:48:02.368Z,18.91
2018-02-20T04:49:11.064Z,18.95
2018-02-20T04:50:20.302Z,18.91
2018-02-20T04:51:30.082Z,18.9
2018-02-20T04:52:39.315Z,18.92
2018-02-20T04:53:48.283Z,18.94
2018-02-20T04:54:57.248Z,18.94
2018-02-20T04:56:05.946Z,18.87
2018-02-20T04:57:15.449Z,18.88
2018-02-20T04:58:24.415Z,18.94
2018-02-20T04:59:33.648Z,18.9
2018-02-20T05:00:42.895Z,18.91
2018-02-20T05:01:52.455Z,18.9
2018-02-20T05:03:01.966Z,18.94
2018-02-20T05:04:10.936Z,18.94
2018-02-20T05:05:19.898Z,18.92
2018-02-20T05:06:28.865Z,18.94
2018-02-20T05:07:38.134Z,18.94
2018-02-20T05:08:46.795Z,18.88
2018-02-20T05:09:55.765Z,18.92
2018-02-20T05:11:05.009Z,18.95
2018-02-20T05:12:14.784Z,18.9
2018-02-20T05:13:24.286Z,18.9
2018-02-20T05:14:33.799Z,18.91
2018-02-20T05:15:43.045Z,18.95
2018-02-20T05:16:52.011Z,18.92
2018-02-20T05:18:01.244Z,18.98
2018-02-20T05:19:10.482Z,19.02
2018-02-20T05:20:19.452Z,18.98
2018-02-20T05:21:28.985Z,18.95
2018-02-20T05:22:38.488Z,19.02
2018-02-20T05:23:47.720Z,18.95
2018-02-20T05:24:56.972Z,19
2018-02-20T05:26:05.940Z,19.02
2018-02-20T05:27:14.900Z,18.92
2018-02-20T05:28:23.865Z,18.98
2018-02-20T05:29:32.832Z,19.04
2018-02-20T05:30:42.075Z,18.99
2018-02-20T05:31:51.307Z,18.99
2018-02-20T05:33:00.813Z,18.99
2018-02-20T05:34:10.050Z,19.06
2018-02-20T05:35:19.017Z,19
2018-02-20T05:36:27.986Z,19.04
2018-02-20T05:37:37.495Z,19
2018-02-20T05:38:46.486Z,19.07
2018-02-20T05:39:55.993Z,19.1
2018-02-20T05:41:05.229Z,18.99
2018-02-20T05:42:13.928Z,19.13
2018-02-20T05:43:22.894Z,19.02
2018-02-20T05:44:32.134Z,19.02
2018-02-20T05:45:41.109Z,19.16
2018-02-20T05:46:50.345Z,19.21
2018-02-20T05:47:59.849Z,19.1
2018-02-20T05:49:08.815Z,19.13
2018-02-20T05:50:18.052Z,19.07
2018-02-20T05:51:27.599Z,19.1
2018-02-20T05:52:36.839Z,19.1
2018-02-20T05:53:45.807Z,19.08
2018-02-20T05:54:54.508Z,19.14
2018-02-20T05:56:03.743Z,19.16
2018-02-20T05:57:12.711Z,19.19
2018-02-20T05:58:21.946Z,19.16
2018-02-20T05:59:30.647Z,19.11
2018-02-20T06:00:39.896Z,19.16
2018-02-20T06:01:49.133Z,19.1
2018-02-20T06:02:58.375Z,19.11
2018-02-20T06:04:07.606Z,19.14
2018-02-20T06:05:16.836Z,19.13
2018-02-20T06:06:26.072Z,19.13
2018-02-20T06:07:35.040Z,19.1
2018-02-20T06:08:44.280Z,19.13
2018-02-20T06:09:53.525Z,19.19
2018-02-20T06:11:02.756Z,19.14
2018-02-20T06:12:11.729Z,19.11
2018-02-20T06:13:20.964Z,19.14
2018-02-20T06:14:29.660Z,19.13
2018-02-20T06:15:38.895Z,19.19
2018-02-20T06:16:48.397Z,19.08
2018-02-20T06:17:57.671Z,19.11
2018-02-20T06:19:06.916Z,19.11
2018-02-20T06:20:16.423Z,19.08
2018-02-20T06:21:25.928Z,19.18
2018-02-20T06:22:34.897Z,19.21
2018-02-20T06:23:44.397Z,19.08
2018-02-20T06:24:53.367Z,19.06
2018-02-20T06:26:02.335Z,19.16
2018-02-20T06:27:11.571Z,19.14
2018-02-20T06:28:20.267Z,19.13
2018-02-20T06:29:28.972Z,19.19
2018-02-20T06:30:38.206Z,19.18
2018-02-20T06:31:47.172Z,19.13
2018-02-20T06:32:56.674Z,19.14
2018-02-20T06:34:05.642Z,19.16
2018-02-20T06:35:14.888Z,19.13
2018-02-20T06:36:24.126Z,19.13
2018-02-20T06:37:33.625Z,19.13
2018-02-20T06:38:43.132Z,19.08
2018-02-20T06:39:52.370Z,19.11
2018-02-20T06:41:01.072Z,19.11
2018-02-20T06:42:10.309Z,19.18
2018-02-20T06:43:19.545Z,19.19
2018-02-20T06:44:29.054Z,19.07
2018-02-20T06:45:38.020Z,19.18
2018-02-20T06:46:46.721Z,19.08
2018-02-20T06:47:56.226Z,19.04
2018-02-20T06:49:05.197Z,19.13
2018-02-20T06:50:14.437Z,19.08
2018-02-20T06:51:23.410Z,19.21
2018-02-20T06:52:32.652Z,19.19
2018-02-20T06:53:41.350Z,19.14
2018-02-20T06:54:50.588Z,19.13
2018-02-20T06:55:59.821Z,19.07
2018-02-20T06:57:09.327Z,19.1
2018-02-20T06:58:18.835Z,19.21
2018-02-20T06:59:28.072Z,19.22
2018-02-20T07:00:37.583Z,19.23
2018-02-20T07:01:46.552Z,19.08
2018-02-20T07:02:56.135Z,19.08
2018-02-20T07:04:05.377Z,19.13
2018-02-20T07:05:14.340Z,19.16
2018-02-20T07:06:24.111Z,19.11
2018-02-20T07:07:33.076Z,19.11
2018-02-20T07:08:41.773Z,19.21
2018-02-20T07:09:50.470Z,19.16
2018-02-20T07:10:59.712Z,19.11
2018-02-20T07:12:09.270Z,19.11
2018-02-20T07:13:19.047Z,19.14
2018-02-20T07:14:28.019Z,19.13
2018-02-20T07:15:36.983Z,19.11
2018-02-20T07:16:46.488Z,19.11
2018-02-20T07:17:55.454Z,19.11
2018-02-20T07:19:04.964Z,19.18
2018-02-20T07:20:13.660Z,19.13
2018-02-20T07:21:22.897Z,19.18
2018-02-20T07:22:31.598Z,19.18
2018-02-20T07:23:40.563Z,19.13
2018-02-20T07:24:49.531Z,19.1
2018-02-20T07:25:59.040Z,19.19
2018-02-20T07:27:08.610Z,19.14
2018-02-20T07:28:17.847Z,19.13
2018-02-20T07:29:27.352Z,19.18
2018-02-20T07:30:36.587Z,19.13
2018-02-20T07:31:45.549Z,19.18
2018-02-20T07:32:55.598Z,19.16
2018-02-20T07:34:04.570Z,19.08
2018-02-20T07:35:13.809Z,19.23
2018-02-20T07:36:23.049Z,19.1
2018-02-20T07:37:31.746Z,19.21
2018-02-20T07:38:40.725Z,19.16
2018-02-20T07:39:49.700Z,19.25
2018-02-20T07:40:58.671Z,19.16
2018-02-20T07:42:07.906Z,19.22
2018-02-20T07:43:17.150Z,19.18
2018-02-20T07:44:25.852Z,19.23
2018-02-20T07:45:35.366Z,19.32
2018-02-20T07:46:44.606Z,19.22
2018-02-20T07:47:54.140Z,19.28
2018-02-20T07:49:02.882Z,19.21
2018-02-20T07:50:12.092Z,19.28
2018-02-20T07:51:21.334Z,19.18
2018-02-20T07:52:30.572Z,19.22
2018-02-20T07:53:39.544Z,19.21
2018-02-20T07:54:49.049Z,19.16
2018-02-20T07:55:58.283Z,19.22
2018-02-20T07:57:07.252Z,19.22
2018-02-20T07:58:16.532Z,19.1
2018-02-20T07:59:25.501Z,19.26
2018-02-20T08:00:34.201Z,19.25
2018-02-20T08:01:43.703Z,19.14
2018-02-20T08:02:52.941Z,19.22
2018-02-20T08:04:01.907Z,19.22
2018-02-20T08:05:11.415Z,19.19
2018-02-20T08:06:20.413Z,19.16
2018-02-20T08:07:29.646Z,19.13
2018-02-20T08:08:38.624Z,19.22
2018-02-20T08:09:47.861Z,19.19
2018-02-20T08:10:57.202Z,19.22
2018-02-20T08:12:06.166Z,19.16
2018-02-20T08:13:15.133Z,19
2018-02-20T08:14:23.832Z,18.94
2018-02-20T08:15:32.797Z,18.98
2018-02-20T08:16:41.764Z,18.94
2018-02-20T08:17:51.263Z,18.8
2018-02-20T08:19:00.502Z,18.78
2018-02-20T08:20:09.468Z,18.85
2018-02-20T08:21:18.433Z,18.84
2018-02-20T08:22:27.130Z,18.81
2018-02-20T08:23:36.099Z,18.94
2018-02-20T08:24:45.336Z,18.92
2018-02-20T08:25:54.306Z,18.9
2018-02-20T08:27:03.550Z,18.95
2018-02-20T08:28:12.776Z,18.91
2018-02-20T08:29:21.743Z,19.02
2018-02-20T08:30:30.711Z,18.94
2018-02-20T08:31:40.212Z,19.02
2018-02-20T08:32:49.179Z,18.94
2018-02-20T08:33:58.416Z,18.98
2018-02-20T08:35:07.383Z,19.06
2018-02-20T08:36:16.352Z,19.02
2018-02-20T08:37:25.321Z,19.04
2018-02-20T08:38:34.288Z,19
2018-02-20T08:39:43.254Z,18.95
2018-02-20T08:40:52.493Z,18.99
2018-02-20T08:42:01.464Z,19.04
2018-02-20T08:43:10.983Z,19
2018-02-20T08:44:20.227Z,18.99
2018-02-20T08:45:30.005Z,19.06
2018-02-20T08:46:38.703Z,19.07
2018-02-20T08:47:47.671Z,19
2018-02-20T08:48:56.642Z,18.99
2018-02-20T08:50:06.143Z,19.08
2018-02-20T08:51:14.837Z,19.06
2018-02-20T08:52:24.082Z,19.08
2018-02-20T08:53:33.057Z,19.11
2018-02-20T08:54:42.297Z,19.07
2018-02-20T08:55:50.999Z,19.1
2018-02-20T08:56:59.962Z,19.13
2018-02-20T08:58:09.206Z,19.11
2018-02-20T08:59:18.180Z,19.11
2018-02-20T09:00:27.148Z,19.1
2018-02-20T09:01:36.388Z,19.1
2018-02-20T09:02:45.088Z,19.14
2018-02-20T09:03:54.098Z,19.08
2018-02-20T09:05:03.656Z,19.13
2018-02-20T09:06:12.358Z,19.21
2018-02-20T09:07:21.593Z,19.18
2018-02-20T09:08:30.559Z,19.11
2018-02-20T09:09:39.793Z,19.14
2018-02-20T09:10:48.760Z,19.14
2018-02-20T09:11:57.727Z,19.14
2018-02-20T09:13:06.692Z,19.16
2018-02-20T09:14:15.953Z,19.14
2018-02-20T09:15:24.647Z,19.1
2018-02-20T09:16:33.615Z,19.22
2018-02-20T09:17:42.316Z,19.14
2018-02-20T09:18:51.826Z,19.14
2018-02-20T09:20:01.065Z,19.18
2018-02-20T09:21:10.302Z,19.26
2018-02-20T09:22:19.807Z,19.25
2018-02-20T09:23:28.774Z,19.19
2018-02-20T09:24:37.745Z,19.22
2018-02-20T09:25:46.443Z,19.26
2018-02-20T09:26:56.212Z,19.23
2018-02-20T09:28:05.454Z,19.1
2018-02-20T09:29:14.422Z,19.21
2018-02-20T09:30:23.399Z,19.23
2018-02-20T09:31:32.363Z,19.23
2018-02-20T09:32:41.863Z,19.26
2018-02-20T09:33:51.096Z,19.29
2018-02-20T09:35:00.064Z,19.26
2018-02-20T09:36:09.576Z,19.28
2018-02-20T09:37:18.541Z,19.28
2018-02-20T09:38:28.041Z,19.23
2018-02-20T09:39:37.009Z,19.28
2018-02-20T09:40:45.974Z,19.28
2018-02-20T09:41:54.945Z,19.23
2018-02-20T09:43:03.648Z,19.21
2018-02-20T09:44:13.150Z,19.26
2018-02-20T09:45:22.390Z,19.29
2018-02-20T09:46:31.625Z,19.28
2018-02-20T09:47:40.862Z,19.29
2018-02-20T09:48:50.098Z,19.25
2018-02-20T09:49:58.793Z,19.26
2018-02-20T09:51:08.032Z,19.25
2018-02-20T09:52:17.268Z,19.29
2018-02-20T09:53:25.968Z,19.28
2018-02-20T09:54:35.210Z,19.25
2018-02-20T09:55:43.910Z,19.25
2018-02-20T09:56:53.412Z,19.25
2018-02-20T09:58:02.654Z,19.21
2018-02-20T09:59:11.627Z,19.21
2018-02-20T10:00:20.596Z,19.28
2018-02-20T10:01:29.832Z,19.28
2018-02-20T10:02:39.399Z,19.26
2018-02-20T10:03:48.593Z,19.29
2018-02-20T10:04:57.569Z,19.29
2018-02-20T10:06:06.536Z,19.29
2018-02-20T10:07:15.233Z,19.26
2018-02-20T10:08:24.745Z,19.23
2018-02-20T10:09:33.713Z,19.25
2018-02-20T10:10:42.949Z,19.28
2018-02-20T10:11:52.459Z,19.29
2018-02-20T10:13:01.700Z,19.28
2018-02-20T10:14:10.946Z,19.29
2018-02-20T10:15:20.182Z,19.28
2018-02-20T10:16:29.422Z,19.28
2018-02-20T10:17:38.663Z,19.25
2018-02-20T10:18:47.627Z,19.36
2018-02-20T10:19:57.132Z,19.37
2018-02-20T10:21:06.098Z,19.32
2018-02-20T10:22:15.062Z,19.28
2018-02-20T10:23:24.306Z,19.29
2018-02-20T10:24:33.545Z,19.31
2018-02-20T10:25:42.781Z,19.31
2018-02-20T10:26:52.025Z,19.36
2018-02-20T10:28:01.267Z,19.32
2018-02-20T10:29:09.963Z,19.36
2018-02-20T10:30:18.659Z,19.43
2018-02-20T10:31:28.160Z,19.5
2018-02-20T10:32:37.128Z,19.46
2018-02-20T10:33:46.093Z,19.41
2018-02-20T10:34:55.061Z,19.44
2018-02-20T10:36:04.027Z,19.55
2018-02-20T10:37:13.263Z,19.58
2018-02-20T10:38:21.962Z,19.51
2018-02-20T10:39:30.660Z,19.54
2018-02-20T10:40:39.360Z,19.59
2018-02-20T10:41:48.598Z,19.62
2018-02-20T10:42:57.831Z,19.58
2018-02-20T10:44:07.069Z,19.61
2018-02-20T10:45:16.310Z,19.54
2018-02-20T10:46:25.557Z,19.58
2018-02-20T10:47:35.062Z,19.62
2018-02-20T10:48:44.032Z,19.66
2018-02-20T10:49:53.835Z,19.63
2018-02-20T10:51:02.805Z,19.63
2018-02-20T10:52:12.307Z,19.71
2018-02-20T10:53:21.548Z,19.68
2018-02-20T10:54:30.792Z,19.58
2018-02-20T10:55:40.028Z,19.71
2018-02-20T10:56:49.534Z,19.69
2018-02-20T10:57:59.047Z,19.74
2018-02-20T10:59:08.277Z,19.71
2018-02-20T11:00:18.054Z,19.69
2018-02-20T11:01:27.024Z,19.74
2018-02-20T11:02:36.263Z,19.68
2018-02-20T11:03:45.231Z,19.76
2018-02-20T11:04:54.477Z,19.69
2018-02-20T11:06:03.714Z,19.68
2018-02-20T11:07:12.741Z,19.76
2018-02-20T11:08:21.710Z,19.73
2018-02-20T11:09:30.953Z,19.76
2018-02-20T11:10:40.728Z,19.68
2018-02-20T11:11:49.977Z,19.69
2018-02-20T11:12:58.673Z,19.76
2018-02-20T11:14:07.909Z,19.76
2018-02-20T11:15:17.146Z,19.8
2018-02-20T11:16:25.849Z,19.83
2018-02-20T11:17:34.813Z,19.83
2018-02-20T11:18:43.785Z,19.84
2018-02-20T11:19:52.484Z,19.74
2018-02-20T11:21:01.994Z,19.83
2018-02-20T11:22:10.966Z,19.8
2018-02-20T11:23:19.668Z,19.92
2018-02-20T11:24:28.905Z,19.84
2018-02-20T11:25:37.915Z,19.8
2018-02-20T11:26:47.512Z,19.87
2018-02-20T11:27:56.439Z,19.83
2018-02-20T11:29:05.142Z,19.81
2018-02-20T11:30:14.109Z,19.88
2018-02-20T11:31:23.085Z,19.94
2018-02-20T11:32:32.585Z,19.86
2018-02-20T11:33:41.824Z,19.98
2018-02-20T11:34:51.333Z,19.98
2018-02-20T11:36:00.296Z,19.95
2018-02-20T11:37:09.533Z,20.11
2018-02-20T11:38:18.504Z,20.02
2018-02-20T11:39:27.486Z,19.95
2018-02-20T11:40:36.186Z,20.02
2018-02-20T11:41:44.883Z,20.03
2018-02-20T11:42:53.865Z,19.92
2018-02-20T11:44:03.373Z,19.95
2018-02-20T11:45:12.072Z,19.98
2018-02-20T11:46:21.308Z,20.05
2018-02-20T11:47:30.277Z,20.05
2018-02-20T11:48:38.981Z,19.98
2018-02-20T11:49:48.222Z,20.01
2018-02-20T11:50:58.000Z,20.06
2018-02-20T11:52:06.969Z,20.02
2018-02-20T11:53:15.941Z,19.96
2018-02-20T11:54:24.907Z,20.02
2018-02-20T11:55:33.609Z,20.03
2018-02-20T11:56:42.844Z,20.03
2018-02-20T11:57:52.080Z,20.08
2018-02-20T11:59:01.855Z,20.03
2018-02-20T12:00:10.551Z,20.02
2018-02-20T12:01:19.519Z,20.14
2018-02-20T12:02:28.806Z,20.1
2018-02-20T12:03:38.040Z,20.08
2018-02-20T12:04:47.289Z,20.02
2018-02-20T12:05:56.254Z,20.14
2018-02-20T12:07:05.771Z,20.06
2018-02-20T12:08:15.076Z,20.02
2018-02-20T12:09:24.846Z,20.03
2018-02-20T12:10:33.545Z,20.03
2018-02-20T12:11:42.783Z,20.08
2018-02-20T12:12:52.020Z,20.11
2018-02-20T12:14:01.331Z,20.14
2018-02-20T12:15:10.847Z,20.08
2018-02-20T12:16:20.354Z,20.14
2018-02-20T12:17:29.325Z,20.1
2018-02-20T12:18:38.291Z,20.06
2018-02-20T12:19:47.261Z,20.13
2018-02-20T12:20:57.040Z,20.14
2018-02-20T12:22:06.012Z,20.13
2018-02-20T12:23:14.977Z,20.1
2018-02-20T12:24:23.946Z,20.18
2018-02-20T12:25:33.186Z,20.13
2018-02-20T12:26:42.697Z,20.16
2018-02-20T12:27:52.203Z,20.05
2018-02-20T12:29:01.172Z,20.11
2018-02-20T12:30:10.415Z,20.17
2018-02-20T12:31:19.390Z,20.16
2018-02-20T12:32:28.357Z,20.13
2018-02-20T12:33:37.074Z,20.18
2018-02-20T12:34:46.314Z,20.13
2018-02-20T12:35:55.550Z,20.2
2018-02-20T12:37:05.333Z,20.14
2018-02-20T12:38:14.842Z,20.14
2018-02-20T12:39:23.543Z,20.17
2018-02-20T12:40:32.510Z,20.11
2018-02-20T12:41:41.752Z,20.18
2018-02-20T12:42:51.381Z,20.16
2018-02-20T12:44:00.896Z,20.21
2018-02-20T12:45:09.862Z,20.17
2018-02-20T12:46:19.368Z,20.21
2018-02-20T12:47:28.880Z,20.16
2018-02-20T12:48:37.581Z,20.24
2018-02-20T12:49:46.819Z,20.26
2018-02-20T12:50:55.784Z,20.24
2018-02-20T12:52:04.757Z,20.21
2018-02-20T12:53:13.457Z,20.21
2018-02-20T12:54:23.239Z,20.23
2018-02-20T12:55:32.476Z,20.23
2018-02-20T12:56:41.989Z,20.26
2018-02-20T12:57:50.959Z,20.18
2018-02-20T12:58:59.656Z,20.23
2018-02-20T13:00:08.894Z,20.23
2018-02-20T13:01:17.593Z,20.17
2018-02-20T13:02:26.561Z,20.13
2018-02-20T13:03:35.802Z,20.2
2018-02-20T13:04:45.037Z,20.17
2018-02-20T13:05:54.008Z,20.16
2018-02-20T13:07:02.709Z,20.1
2018-02-20T13:08:11.942Z,20.21
2018-02-20T13:09:20.910Z,20.13
2018-02-20T13:10:30.143Z,20.13
2018-02-20T13:11:38.842Z,20.18
2018-02-20T13:12:47.544Z,20.16
2018-02-20T13:13:56.518Z,20.1
2018-02-20T13:15:05.758Z,20.16
2018-02-20T13:16:14.457Z,20.14
2018-02-20T13:17:23.421Z,20.14
2018-02-20T13:18:32.387Z,20.1
2018-02-20T13:19:41.625Z,20.16
2018-02-20T13:20:50.857Z,20.13
2018-02-20T13:22:00.102Z,20.17
2018-02-20T13:23:09.076Z,20.13
2018-02-20T13:24:17.771Z,20.1
2018-02-20T13:25:27.014Z,20.21
2018-02-20T13:26:35.988Z,20.14
2018-02-20T13:27:44.689Z,20.21
2018-02-20T13:28:53.661Z,20.13
2018-02-20T13:30:02.634Z,20.17
2018-02-20T13:31:11.601Z,20.21
2018-02-20T13:32:20.301Z,20.17
2018-02-20T13:33:29.271Z,20.17
2018-02-20T13:34:38.504Z,20.17
2018-02-20T13:35:47.204Z,20.18
2018-02-20T13:36:56.709Z,20.2
2018-02-20T13:38:05.680Z,20.16
2018-02-20T13:39:15.466Z,20.2
2018-02-20T13:40:25.248Z,20.14
2018-02-20T13:41:34.485Z,20.13
2018-02-20T13:42:43.185Z,20.1
2018-02-20T13:43:52.688Z,20.18
2018-02-20T13:45:01.948Z,20.16
2018-02-20T13:46:10.916Z,20.13
2018-02-20T13:47:19.615Z,20.14
2018-02-20T13:48:28.580Z,20.14
2018-02-20T13:49:37.551Z,20.1
2018-02-20T13:50:47.060Z,20.06
2018-02-20T13:51:55.762Z,20.2
2018-02-20T13:53:05.004Z,20.08
2018-02-20T13:54:13.974Z,20.14
2018-02-20T13:55:23.751Z,20.1
2018-02-20T13:56:32.715Z,20.11
2018-02-20T13:57:41.948Z,20.1
2018-02-20T13:58:51.463Z,20.18
2018-02-20T14:00:00.714Z,20.11
2018-02-20T14:01:09.950Z,20.13
2018-02-20T14:02:18.648Z,20.05
2018-02-20T14:03:27.342Z,20.2
2018-02-20T14:04:36.038Z,20.13
2018-02-20T14:05:45.269Z,20.1
2018-02-20T14:06:54.236Z,20.16
2018-02-20T14:08:03.205Z,20.08
2018-02-20T14:09:12.173Z,20.03
2018-02-20T14:10:21.483Z,20.03
2018-02-20T14:11:30.719Z,20.1
2018-02-20T14:12:39.698Z,20.06
2018-02-20T14:13:48.938Z,20.13
2018-02-20T14:14:57.906Z,20.13
2018-02-20T14:16:07.149Z,20.17
2018-02-20T14:17:16.471Z,20.16
2018-02-20T14:18:25.170Z,20.11
2018-02-20T14:19:34.406Z,20.17
2018-02-20T14:20:43.106Z,20.08
2018-02-20T14:21:52.340Z,20.11
2018-02-20T14:23:01.847Z,20.11
2018-02-20T14:24:11.079Z,20.1
2018-02-20T14:25:19.782Z,20.08
2018-02-20T14:26:29.557Z,20.11
2018-02-20T14:27:38.258Z,20.05
2018-02-20T14:28:47.493Z,20.17
2018-02-20T14:29:57.273Z,20.05
2018-02-20T14:31:06.238Z,20.1
2018-02-20T14:32:15.472Z,20.14
2018-02-20T14:33:24.439Z,20.03
2018-02-20T14:34:33.406Z,20.11
2018-02-20T14:35:42.374Z,20.02
2018-02-20T14:36:51.073Z,20.03
2018-02-20T14:38:00.041Z,20.05
2018-02-20T14:39:09.320Z,20.06
2018-02-20T14:40:18.566Z,20.08
2018-02-20T14:41:27.535Z,20.06
2018-02-20T14:42:36.512Z,20.08
2018-02-20T14:43:45.477Z,20.03
2018-02-20T14:44:54.993Z,20.02
2018-02-20T14:46:03.685Z,20.16
2018-02-20T14:47:13.203Z,20.05
2018-02-20T14:48:22.434Z,20.1
2018-02-20T14:49:31.484Z,20.06
2018-02-20T14:50:40.983Z,20.05
2018-02-20T14:51:50.219Z,20.02
2018-02-20T14:52:59.454Z,20.02
2018-02-20T14:54:08.956Z,19.96
2018-02-20T14:55:17.922Z,19.94